createdAt,value
2023-03-27T00:02:35.499Z,93589.00
2023-03-27T00:06:35.349Z,93593.00
2023-03-27T00:10:35.291Z,93601.00
2023-03-27T00:14:35.228Z,93610.00
2023-03-27T00:18:35.219Z,93610.00
2023-03-27T00:22:35.138Z,93612.00
2023-03-27T00:26:35.223Z,93618.00
2023-03-27T00:30:35.519Z,93608.00
2023-03-27T00:34:35.421Z,93608.00
2023-03-27T00:38:35.424Z,93614.00
2023-03-27T00:42:35.382Z,93616.00
2023-03-27T00:46:35.386Z,93620.00
2023-03-27T00:50:35.263Z,93618.00
2023-03-27T00:54:35.270Z,93616.00
2023-03-27T00:58:35.249Z,93620.00
2023-03-27T01:02:35.258Z,93620.00
2023-03-27T01:06:35.152Z,93620.00
2023-03-27T01:10:35.097Z,93616.00
2023-03-27T01:14:35.276Z,93630.00
2023-03-27T01:18:35.485Z,93628.00
2023-03-27T01:22:35.694Z,93634.00
2023-03-27T01:26:36.980Z,93618.00
2023-03-27T01:30:35.601Z,93620.00
2023-03-27T01:34:35.521Z,93626.00
2023-03-27T01:38:35.541Z,93634.00
2023-03-27T01:42:35.783Z,93634.00
2023-03-27T01:46:35.989Z,93634.00
2023-03-27T01:50:36.152Z,93642.00
2023-03-27T01:54:36.208Z,93634.00
2023-03-27T01:58:36.315Z,93634.00
2023-03-27T02:02:36.395Z,93640.00
2023-03-27T02:06:36.483Z,93640.00
2023-03-27T02:10:36.577Z,93642.00
2023-03-27T02:14:36.675Z,93638.00
2023-03-27T02:18:36.783Z,93640.00
2023-03-27T02:22:38.348Z,93644.00
2023-03-27T02:26:36.959Z,93634.00
2023-03-27T02:30:37.049Z,93626.00
2023-03-27T02:34:37.144Z,93634.00
2023-03-27T02:38:37.305Z,93632.00
2023-03-27T02:42:37.440Z,93630.00
2023-03-27T02:46:37.543Z,93628.00
2023-03-27T02:50:37.575Z,93632.00
2023-03-27T02:54:37.656Z,93636.00
2023-03-27T02:58:37.753Z,93632.00
2023-03-27T03:02:38.125Z,93634.00
2023-03-27T03:06:38.186Z,93644.00
2023-03-27T03:10:38.421Z,93640.00
2023-03-27T03:14:38.502Z,93646.00
2023-03-27T03:18:38.579Z,93646.00
2023-03-27T03:22:38.597Z,93636.00
2023-03-27T03:26:38.567Z,93636.00
2023-03-27T03:30:38.585Z,93636.00
2023-03-27T03:34:38.539Z,93642.00
2023-03-27T03:38:38.525Z,93651.00
2023-03-27T03:42:38.478Z,93653.00
2023-03-27T03:46:38.506Z,93661.00
2023-03-27T03:50:38.480Z,93667.00
2023-03-27T03:54:38.413Z,93679.00
2023-03-27T03:58:38.430Z,93679.00
2023-03-27T04:02:38.590Z,93685.00
2023-03-27T04:06:38.473Z,93687.00
2023-03-27T04:10:38.408Z,93698.00
2023-03-27T04:14:38.440Z,93694.00
2023-03-27T04:18:38.665Z,93696.00
2023-03-27T04:22:38.647Z,93698.00
2023-03-27T04:26:38.761Z,93700.00
2023-03-27T04:30:38.724Z,93691.00
2023-03-27T04:34:38.699Z,93694.00
2023-03-27T04:38:38.705Z,93716.00
2023-03-27T04:42:38.660Z,93726.00
2023-03-27T04:46:38.760Z,93734.00
2023-03-27T04:50:38.679Z,93730.00
2023-03-27T04:54:38.710Z,93741.00
2023-03-27T04:58:38.706Z,93741.00
2023-03-27T05:02:38.700Z,93749.00
2023-03-27T05:06:40.486Z,93757.00
2023-03-27T05:10:38.950Z,93775.00
2023-03-27T05:14:38.845Z,93775.00
2023-03-27T05:18:41.993Z,93787.00
2023-03-27T05:22:38.751Z,93775.00
2023-03-27T05:26:38.719Z,93783.00
2023-03-27T05:30:39.112Z,93788.00
2023-03-27T05:34:38.653Z,93790.00
2023-03-27T05:38:38.598Z,93814.00
2023-03-27T05:42:38.528Z,93828.00
2023-03-27T05:46:38.562Z,93826.00
2023-03-27T05:50:38.473Z,93849.00
2023-03-27T05:54:38.421Z,93851.00
2023-03-27T05:58:38.355Z,93865.00
2023-03-27T06:02:38.548Z,93857.00
2023-03-27T06:06:38.319Z,93877.00
2023-03-27T06:10:38.306Z,93883.00
2023-03-27T06:14:38.267Z,93906.00
2023-03-27T06:18:38.403Z,93922.00
2023-03-27T06:22:38.393Z,93928.00
2023-03-27T06:26:38.372Z,93947.00
2023-03-27T06:30:38.297Z,93963.00
2023-03-27T06:34:38.469Z,93971.00
2023-03-27T06:38:38.249Z,93977.00
2023-03-27T06:42:38.517Z,93988.00
2023-03-27T06:46:45.021Z,93992.00
2023-03-27T06:50:39.189Z,94026.00
2023-03-27T06:54:38.097Z,94032.00
2023-03-27T06:58:38.077Z,94045.00
2023-03-27T07:02:40.079Z,94075.00
2023-03-27T07:06:39.674Z,94055.00
2023-03-27T07:10:39.010Z,94084.00
2023-03-27T07:14:38.723Z,94092.00
2023-03-27T07:18:38.717Z,94102.00
2023-03-27T07:22:38.694Z,94122.00
2023-03-27T07:26:38.595Z,94155.00
2023-03-27T12:58:38.399Z,94641.00
2023-03-27T13:02:38.476Z,94641.00
2023-03-27T13:10:38.195Z,94649.00
2023-03-27T13:18:38.170Z,94647.00
2023-03-27T13:42:39.193Z,94698.00
2023-03-27T17:06:40.229Z,95029.00
2023-03-27T17:10:40.210Z,95031.00
2023-03-27T17:14:40.384Z,95029.00
2023-03-27T17:34:41.189Z,95061.00
2023-03-27T18:54:43.112Z,95131.00
2023-03-27T19:26:42.971Z,95161.00
2023-03-27T19:30:42.965Z,95161.00
2023-03-27T19:34:43.345Z,95166.00
2023-03-27T19:38:42.868Z,95164.00
2023-03-27T19:42:42.884Z,95178.00
2023-03-27T19:46:42.933Z,95182.00
2023-03-27T19:50:42.771Z,95172.00
2023-03-27T19:54:42.757Z,95172.00
2023-03-27T19:58:42.680Z,95174.00
2023-03-27T20:02:42.672Z,95176.00
2023-03-27T20:06:42.647Z,95180.00
2023-03-27T20:10:42.548Z,95170.00
2023-03-27T20:14:44.898Z,95168.00
2023-03-27T20:18:43.567Z,95168.00
2023-03-27T20:22:56.453Z,95178.00
2023-03-27T20:26:43.439Z,95180.00
2023-03-27T20:30:42.603Z,95188.00
2023-03-27T20:34:42.360Z,95200.00
2023-03-27T20:38:42.349Z,95208.00
2023-03-27T20:42:42.367Z,95215.00
2023-03-27T20:46:42.525Z,95211.00
2023-03-27T20:50:42.580Z,95219.00
2023-03-27T20:54:42.715Z,95231.00
2023-03-27T20:58:42.774Z,95225.00
2023-03-27T21:02:43.116Z,95225.00
2023-03-27T21:06:43.037Z,95217.00
2023-03-27T21:10:43.075Z,95223.00
2023-03-27T21:14:43.108Z,95221.00
2023-03-27T21:18:43.081Z,95229.00
2023-03-27T21:22:43.085Z,95233.00
2023-03-27T21:26:43.077Z,95227.00
2023-03-27T21:30:47.237Z,95227.00
2023-03-27T21:38:42.947Z,95217.00
2023-03-27T21:42:42.914Z,95219.00
2023-03-27T21:46:42.914Z,95223.00
2023-03-27T21:50:42.825Z,95235.00
2023-03-27T21:54:52.966Z,95233.00
2023-03-27T22:02:42.816Z,95247.00
2023-03-27T22:06:42.789Z,95255.00
2023-03-27T22:10:42.661Z,95263.00
2023-03-27T22:14:42.638Z,95266.00
2023-03-27T22:18:42.557Z,95270.00
2023-03-27T22:22:42.541Z,95268.00
2023-03-27T23:50:42.881Z,95335.00
